CMA CGM Kingfish — A8YW9 — position and weather

sailwx.info

Track history (hours):
 
Tides and Currents Weather Stations Pressure Air Temp Water Temp Dewpoint Dewpoint Depression Visibility Wind Speed Wind Dir Waves Ship Positions

CMA CGM Kingfish

Last reported at 2014-Oct-01 15:32 UTC. Time now 2014-Oct-01 20:22 UTC.
Position N 39°33' W 073°53'.

Length 294 m; draft 12 m.

Type: Ship (hazmat cat A). MMSI: 636015147.

Date/timePositionNaut miles runAvg speedWind from/ knotsBaromVisibWave heightAir tempDewpointWater temp
2014-Oct-01 15:32N 39°33' W 073°53'1513.2
2014-Oct-01 14:24N 39°48' W 073°51'3813.2
2014-Oct-01 11:33N 40°25' W 073°49'1414.4
2014-Oct-01 10:33N 40°35' W 074°02'6 6.3
2014-Oct-01 09:33N 40°40' W 074°09'0 0.2
2014-Oct-01 08:33N 40°40' W 074°09'0 0.0
2014-Oct-01 07:33N 40°40' W 074°09'0 0.0
2014-Oct-01 06:33N 40°40' W 074°09'0 0.0
2014-Oct-01 05:33N 40°40' W 074°09'0 0.0
2014-Oct-01 04:33N 40°40' W 074°09'0 0.0
2014-Oct-01 03:33N 40°40' W 074°09'0 0.0
2014-Oct-01 02:33N 40°40' W 074°09'0 0.0
2014-Oct-01 01:33N 40°40' W 074°09'0 0.0
2014-Oct-01 00:33N 40°40' W 074°09'0 0.0
2014-Sep-30 23:33N 40°40' W 074°09'0 0.0
2014-Sep-30 22:33N 40°40' W 074°09'0 0.0
2014-Sep-30 21:33N 40°40' W 074°09'0 0.0
2014-Sep-30 20:33N 40°40' W 074°09'0 0.0
2014-Sep-30 19:33N 40°40' W 074°09'0 0.0
2014-Sep-30 18:33N 40°40' W 074°09'0 0.0
2014-Sep-30 17:33N 40°40' W 074°09'0 0.0
2014-Sep-30 16:33N 40°40' W 074°09'0 0.0
2014-Sep-30 15:33N 40°40' W 074°09'0 0.0
2014-Sep-30 14:33N 40°40' W 074°09'0 0.0
2014-Sep-30 13:33N 40°40' W 074°09'0 0.0
2014-Sep-30 12:33N 40°40' W 074°09'0 0.0
2014-Sep-30 11:33N 40°40' W 074°09'1 0.7
2014-Sep-30 10:33N 40°39' W 074°09'5 5.0
2014-Sep-30 09:33N 40°37' W 074°03'1313.0
2014-Sep-30 08:33N 40°28' W 073°51'4 3.8
2014-Sep-30 07:33N 40°29' W 073°46'0 0.2
2014-Sep-30 06:31N 40°29' W 073°46'0 0.0
2014-Sep-30 05:31N 40°29' W 073°46'0 0.0
2014-Sep-30 04:31N 40°29' W 073°46'4 3.8
2014-Sep-30 03:33N 40°28' W 073°42'1514.9
2014-Sep-30 02:33N 40°29' W 073°22'1818.2
2014-Sep-30 01:33N 40°30' W 072°58'1818.2
2014-Sep-30 00:33N 40°30' W 072°34'1818.4
2014-Sep-29 23:33N 40°31' W 072°10'1818.5
2014-Sep-29 22:33N 40°32' W 071°46'1818.4
2014-Sep-29 21:33N 40°32' W 071°21'1818.4
2014-Sep-29 20:33N 40°33' W 070°57'1818.2
2014-Sep-29 19:33N 40°33' W 070°33'1818.3
2014-Sep-29 18:33N 40°34' W 070°09'10 9.8
2014-Sep-29 17:33N 40°34' W 069°56'1717.1
2014-Sep-29 16:33N 40°35' W 069°34'1717.4
2014-Sep-29 15:33N 40°35' W 069°11'1817.4
2014-Sep-29 14:32N 40°36' W 068°48'1717.5
2014-Sep-29 13:33N 40°36' W 068°25'1717.5
2014-Sep-29 12:33N 40°34' W 068°02'2117.4
2014-Sep-29 11:20N 40°32' W 067°34'20717.6
2014-Sep-28 23:33N 40°18' W 063°03'1917.4
2014-Sep-28 22:26N 40°19' W 062°38'10517.6
2014-Sep-28 16:29N 40°18' W 060°20'  
2014-Sep-25 10:14N 39°49' W 029°42'1218.1
2014-Sep-25 09:33N 39°47' W 029°26'1918.2
2014-Sep-25 08:30N 39°45' W 029°01'1718.1
2014-Sep-25 07:33N 39°43' W 028°39'1918.5
2014-Sep-25 06:33N 39°41' W 028°15'1818.2
2014-Sep-25 05:33N 39°38' W 027°52'1818.1
2014-Sep-25 04:33N 39°36' W 027°28'8118.1
2014-Sep-25 00:05N 39°27' W 025°44'  
2014-Sep-22 16:21N 36°02' W 005°19'19517.3
2014-Sep-22 05:07N 36°24' W 001°19'1317.6
2014-Sep-22 04:24N 36°26' W 001°04'1517.7
2014-Sep-22 03:33N 36°28' W 000°46'1817.9
2014-Sep-22 02:33N 36°31' W 000°24'2018.6
2014-Sep-22 01:30N 36°34' E 000°01'1718.2
2014-Sep-22 00:33N 36°36' E 000°22'1818.3
2014-Sep-21 23:33N 36°40' E 000°44'1817.9
2014-Sep-21 22:33N 36°43' E 001°06'1818.3
2014-Sep-21 21:32N 36°46' E 001°29'2618.1
2014-Sep-21 20:07N 36°50' E 002°01'1118.2
2014-Sep-21 19:32N 36°52' E 002°14'1818.5
2014-Sep-21 18:33N 36°54' E 002°36'1818.2
2014-Sep-21 17:33N 36°57' E 002°59'1817.9
2014-Sep-21 16:33N 37°00' E 003°21'1817.7
2014-Sep-21 15:33N 37°03' E 003°42'  
Track history (hours):
 
Tides and Currents Weather Stations Pressure Air Temp Water Temp Dewpoint Dewpoint Depression Visibility Wind Speed Wind Dir Waves Ship Positions

CMA CGM Kingfish

Last reported at 2014-Oct-01 15:32 UTC. Time now 2014-Oct-01 20:22 UTC.
Position N 39°33' W 073°53'.

Length 294 m; draft 12 m.

Type: Ship (hazmat cat A). MMSI: 636015147.

Date/timePositionNaut miles runAvg speedWind from/ knotsBaromVisibWave heightAir tempDewpointWater temp
2014-Oct-01 15:32N 39°33' W 073°53'1513.2
2014-Oct-01 14:24N 39°48' W 073°51'3813.2
2014-Oct-01 11:33N 40°25' W 073°49'1414.4
2014-Oct-01 10:33N 40°35' W 074°02'6 6.3
2014-Oct-01 09:33N 40°40' W 074°09'0 0.2
2014-Oct-01 08:33N 40°40' W 074°09'0 0.0
2014-Oct-01 07:33N 40°40' W 074°09'0 0.0
2014-Oct-01 06:33N 40°40' W 074°09'0 0.0
2014-Oct-01 05:33N 40°40' W 074°09'0 0.0
2014-Oct-01 04:33N 40°40' W 074°09'0 0.0
2014-Oct-01 03:33N 40°40' W 074°09'0 0.0
2014-Oct-01 02:33N 40°40' W 074°09'0 0.0
2014-Oct-01 01:33N 40°40' W 074°09'0 0.0
2014-Oct-01 00:33N 40°40' W 074°09'0 0.0
2014-Sep-30 23:33N 40°40' W 074°09'0 0.0
2014-Sep-30 22:33N 40°40' W 074°09'0 0.0
2014-Sep-30 21:33N 40°40' W 074°09'0 0.0
2014-Sep-30 20:33N 40°40' W 074°09'0 0.0
2014-Sep-30 19:33N 40°40' W 074°09'0 0.0
2014-Sep-30 18:33N 40°40' W 074°09'0 0.0
2014-Sep-30 17:33N 40°40' W 074°09'0 0.0
2014-Sep-30 16:33N 40°40' W 074°09'0 0.0
2014-Sep-30 15:33N 40°40' W 074°09'0 0.0
2014-Sep-30 14:33N 40°40' W 074°09'0 0.0
2014-Sep-30 13:33N 40°40' W 074°09'0 0.0
2014-Sep-30 12:33N 40°40' W 074°09'0 0.0
2014-Sep-30 11:33N 40°40' W 074°09'1 0.7
2014-Sep-30 10:33N 40°39' W 074°09'5 5.0
2014-Sep-30 09:33N 40°37' W 074°03'1313.0
2014-Sep-30 08:33N 40°28' W 073°51'4 3.8
2014-Sep-30 07:33N 40°29' W 073°46'0 0.2
2014-Sep-30 06:31N 40°29' W 073°46'0 0.0
2014-Sep-30 05:31N 40°29' W 073°46'0 0.0
2014-Sep-30 04:31N 40°29' W 073°46'4 3.8
2014-Sep-30 03:33N 40°28' W 073°42'1514.9
2014-Sep-30 02:33N 40°29' W 073°22'1818.2
2014-Sep-30 01:33N 40°30' W 072°58'1818.2
2014-Sep-30 00:33N 40°30' W 072°34'1818.4
2014-Sep-29 23:33N 40°31' W 072°10'1818.5
2014-Sep-29 22:33N 40°32' W 071°46'1818.4
2014-Sep-29 21:33N 40°32' W 071°21'1818.4
2014-Sep-29 20:33N 40°33' W 070°57'1818.2
2014-Sep-29 19:33N 40°33' W 070°33'1818.3
2014-Sep-29 18:33N 40°34' W 070°09'10 9.8
2014-Sep-29 17:33N 40°34' W 069°56'1717.1
2014-Sep-29 16:33N 40°35' W 069°34'1717.4
2014-Sep-29 15:33N 40°35' W 069°11'1817.4
2014-Sep-29 14:32N 40°36' W 068°48'1717.5
2014-Sep-29 13:33N 40°36' W 068°25'1717.5
2014-Sep-29 12:33N 40°34' W 068°02'2117.4
2014-Sep-29 11:20N 40°32' W 067°34'20717.6
2014-Sep-28 23:33N 40°18' W 063°03'1917.4
2014-Sep-28 22:26N 40°19' W 062°38'10517.6
2014-Sep-28 16:29N 40°18' W 060°20'  
2014-Sep-25 10:14N 39°49' W 029°42'1218.1
2014-Sep-25 09:33N 39°47' W 029°26'1918.2
2014-Sep-25 08:30N 39°45' W 029°01'1718.1
2014-Sep-25 07:33N 39°43' W 028°39'1918.5
2014-Sep-25 06:33N 39°41' W 028°15'1818.2
2014-Sep-25 05:33N 39°38' W 027°52'1818.1
2014-Sep-25 04:33N 39°36' W 027°28'8118.1
2014-Sep-25 00:05N 39°27' W 025°44'  
2014-Sep-22 16:21N 36°02' W 005°19'19517.3
2014-Sep-22 05:07N 36°24' W 001°19'1317.6
2014-Sep-22 04:24N 36°26' W 001°04'1517.7
2014-Sep-22 03:33N 36°28' W 000°46'1817.9
2014-Sep-22 02:33N 36°31' W 000°24'2018.6
2014-Sep-22 01:30N 36°34' E 000°01'1718.2
2014-Sep-22 00:33N 36°36' E 000°22'1818.3
2014-Sep-21 23:33N 36°40' E 000°44'1817.9
2014-Sep-21 22:33N 36°43' E 001°06'1818.3
2014-Sep-21 21:32N 36°46' E 001°29'2618.1
2014-Sep-21 20:07N 36°50' E 002°01'1118.2
2014-Sep-21 19:32N 36°52' E 002°14'1818.5
2014-Sep-21 18:33N 36°54' E 002°36'1818.2
2014-Sep-21 17:33N 36°57' E 002°59'1817.9
2014-Sep-21 16:33N 37°00' E 003°21'1817.7
2014-Sep-21 15:33N 37°03' E 003°42'  

Dump ship's entire track history